sensor_id;sensor_type;location;lat;lon;timestamp;P1;durP1;ratioP1;P2;durP2;ratioP2
12603;SDS011;6367;52.508;13.284;2023-02-15T00:01:28;31.77;;;22.90;;
12603;SDS011;6367;52.508;13.284;2023-02-15T00:03:55;30.80;;;19.60;;
12603;SDS011;6367;52.508;13.284;2023-02-15T00:06:21;31.97;;;20.00;;
12603;SDS011;6367;52.508;13.284;2023-02-15T00:08:47;34.40;;;21.30;;
12603;SDS011;6367;52.508;13.284;2023-02-15T00:11:14;29.67;;;20.87;;
12603;SDS011;6367;52.508;13.284;2023-02-15T00:13:41;32.83;;;21.80;;
12603;SDS011;6367;52.508;13.284;2023-02-15T00:16:08;32.10;;;22.03;;
12603;SDS011;6367;52.508;13.284;2023-02-15T00:18:40;31.57;;;21.80;;
12603;SDS011;6367;52.508;13.284;2023-02-15T00:21:06;34.00;;;21.17;;
12603;SDS011;6367;52.508;13.284;2023-02-15T00:23:34;34.83;;;19.87;;
12603;SDS011;6367;52.508;13.284;2023-02-15T00:26:07;28.33;;;20.30;;
12603;SDS011;6367;52.508;13.284;2023-02-15T00:28:34;31.57;;;21.63;;
12603;SDS011;6367;52.508;13.284;2023-02-15T00:31:03;31.93;;;20.57;;
12603;SDS011;6367;52.508;13.284;2023-02-15T00:33:34;33.77;;;22.40;;
12603;SDS011;6367;52.508;13.284;2023-02-15T00:36:01;28.03;;;20.63;;
12603;SDS011;6367;52.508;13.284;2023-02-15T00:38:28;34.03;;;22.00;;
12603;SDS011;6367;52.508;13.284;2023-02-15T00:40:56;33.13;;;21.10;;
12603;SDS011;6367;52.508;13.284;2023-02-15T00:43:23;31.70;;;20.40;;
12603;SDS011;6367;52.508;13.284;2023-02-15T00:45:50;33.63;;;21.10;;
12603;SDS011;6367;52.508;13.284;2023-02-15T00:48:16;33.77;;;21.93;;
12603;SDS011;6367;52.508;13.284;2023-02-15T00:50:44;31.83;;;22.20;;
12603;SDS011;6367;52.508;13.284;2023-02-15T00:53:17;35.20;;;22.37;;
12603;SDS011;6367;52.508;13.284;2023-02-15T00:55:43;29.07;;;20.13;;
12603;SDS011;6367;52.508;13.284;2023-02-15T00:58:09;36.10;;;23.63;;
12603;SDS011;6367;52.508;13.284;2023-02-15T01:00:36;35.23;;;21.93;;
12603;SDS011;6367;52.508;13.284;2023-02-15T01:03:03;35.43;;;23.80;;
12603;SDS011;6367;52.508;13.284;2023-02-15T01:05:29;32.53;;;22.50;;
12603;SDS011;6367;52.508;13.284;2023-02-15T01:07:55;34.30;;;22.13;;
12603;SDS011;6367;52.508;13.284;2023-02-15T01:10:22;32.50;;;22.67;;
12603;SDS011;6367;52.508;13.284;2023-02-15T01:12:49;38.30;;;24.10;;
12603;SDS011;6367;52.508;13.284;2023-02-15T01:15:15;33.37;;;24.27;;
12603;SDS011;6367;52.508;13.284;2023-02-15T01:17:41;40.07;;;22.70;;
12603;SDS011;6367;52.508;13.284;2023-02-15T01:20:09;34.10;;;23.57;;
12603;SDS011;6367;52.508;13.284;2023-02-15T01:22:35;35.90;;;23.97;;
12603;SDS011;6367;52.508;13.284;2023-02-15T01:25:00;35.93;;;24.17;;
12603;SDS011;6367;52.508;13.284;2023-02-15T01:27:26;34.50;;;22.93;;
12603;SDS011;6367;52.508;13.284;2023-02-15T01:29:55;36.90;;;22.50;;
12603;SDS011;6367;52.508;13.284;2023-02-15T01:32:21;41.30;;;23.57;;
12603;SDS011;6367;52.508;13.284;2023-02-15T01:34:46;37.10;;;25.07;;
12603;SDS011;6367;52.508;13.284;2023-02-15T01:37:12;34.90;;;21.70;;
12603;SDS011;6367;52.508;13.284;2023-02-15T01:39:38;38.07;;;24.60;;
12603;SDS011;6367;52.508;13.284;2023-02-15T01:42:03;32.37;;;23.03;;
12603;SDS011;6367;52.508;13.284;2023-02-15T01:47:15;42.00;;;27.40;;
12603;SDS011;6367;52.508;13.284;2023-02-15T01:52:38;39.53;;;25.63;;
12603;SDS011;6367;52.508;13.284;2023-02-15T01:55:18;37.20;;;25.40;;
12603;SDS011;6367;52.508;13.284;2023-02-15T01:57:46;33.30;;;23.50;;
12603;SDS011;6367;52.508;13.284;2023-02-15T02:00:13;38.07;;;25.47;;
12603;SDS011;6367;52.508;13.284;2023-02-15T02:02:41;39.67;;;25.30;;
12603;SDS011;6367;52.508;13.284;2023-02-15T02:05:09;39.43;;;24.97;;
12603;SDS011;6367;52.508;13.284;2023-02-15T02:07:37;37.60;;;25.90;;
12603;SDS011;6367;52.508;13.284;2023-02-15T02:10:05;36.60;;;25.37;;
12603;SDS011;6367;52.508;13.284;2023-02-15T02:12:34;39.30;;;26.90;;
12603;SDS011;6367;52.508;13.284;2023-02-15T02:15:02;38.40;;;24.67;;
12603;SDS011;6367;52.508;13.284;2023-02-15T02:17:39;37.93;;;25.77;;
12603;SDS011;6367;52.508;13.284;2023-02-15T02:34:31;42.07;;;27.50;;
12603;SDS011;6367;52.508;13.284;2023-02-15T02:37:14;40.00;;;28.27;;
12603;SDS011;6367;52.508;13.284;2023-02-15T02:42:54;37.40;;;24.83;;
12603;SDS011;6367;52.508;13.284;2023-02-15T02:45:25;42.80;;;27.67;;
12603;SDS011;6367;52.508;13.284;2023-02-15T02:48:01;42.47;;;28.67;;
12603;SDS011;6367;52.508;13.284;2023-02-15T02:50:30;46.50;;;29.10;;
12603;SDS011;6367;52.508;13.284;2023-02-15T02:52:57;46.67;;;28.33;;
12603;SDS011;6367;52.508;13.284;2023-02-15T03:03:47;48.20;;;31.27;;
12603;SDS011;6367;52.508;13.284;2023-02-15T03:06:18;43.60;;;29.40;;
12603;SDS011;6367;52.508;13.284;2023-02-15T03:09:05;48.63;;;29.90;;
12603;SDS011;6367;52.508;13.284;2023-02-15T03:11:46;49.67;;;29.10;;
12603;SDS011;6367;52.508;13.284;2023-02-15T03:14:14;47.30;;;30.90;;
12603;SDS011;6367;52.508;13.284;2023-02-15T03:16:41;48.23;;;29.43;;
12603;SDS011;6367;52.508;13.284;2023-02-15T03:19:18;48.47;;;30.03;;
12603;SDS011;6367;52.508;13.284;2023-02-15T03:21:51;52.90;;;31.80;;
12603;SDS011;6367;52.508;13.284;2023-02-15T03:24:56;55.57;;;32.40;;
12603;SDS011;6367;52.508;13.284;2023-02-15T03:27:48;58.77;;;33.00;;
12603;SDS011;6367;52.508;13.284;2023-02-15T03:30:19;54.07;;;32.87;;
12603;SDS011;6367;52.508;13.284;2023-02-15T03:32:47;55.70;;;32.03;;
12603;SDS011;6367;52.508;13.284;2023-02-15T03:35:15;52.40;;;33.30;;
12603;SDS011;6367;52.508;13.284;2023-02-15T03:37:48;61.20;;;33.30;;
12603;SDS011;6367;52.508;13.284;2023-02-15T03:46:05;54.40;;;33.23;;
12603;SDS011;6367;52.508;13.284;2023-02-15T03:48:43;55.97;;;33.30;;
12603;SDS011;6367;52.508;13.284;2023-02-15T03:51:20;55.03;;;32.47;;
12603;SDS011;6367;52.508;13.284;2023-02-15T03:54:01;54.37;;;33.90;;
12603;SDS011;6367;52.508;13.284;2023-02-15T03:56:36;57.37;;;31.57;;
12603;SDS011;6367;52.508;13.284;2023-02-15T03:59:05;51.27;;;31.50;;
12603;SDS011;6367;52.508;13.284;2023-02-15T04:04:35;56.57;;;31.17;;
12603;SDS011;6367;52.508;13.284;2023-02-15T04:07:08;51.70;;;31.10;;
12603;SDS011;6367;52.508;13.284;2023-02-15T04:09:34;55.77;;;32.03;;
12603;SDS011;6367;52.508;13.284;2023-02-15T04:12:18;50.57;;;30.73;;
12603;SDS011;6367;52.508;13.284;2023-02-15T04:14:44;53.70;;;32.73;;
12603;SDS011;6367;52.508;13.284;2023-02-15T04:17:28;53.70;;;32.57;;
12603;SDS011;6367;52.508;13.284;2023-02-15T04:19:53;53.03;;;30.90;;
12603;SDS011;6367;52.508;13.284;2023-02-15T04:22:38;51.50;;;30.40;;
12603;SDS011;6367;52.508;13.284;2023-02-15T04:25:22;59.00;;;32.83;;
12603;SDS011;6367;52.508;13.284;2023-02-15T04:27:49;54.30;;;31.63;;
12603;SDS011;6367;52.508;13.284;2023-02-15T04:30:16;51.93;;;31.40;;
12603;SDS011;6367;52.508;13.284;2023-02-15T04:32:43;55.13;;;32.83;;
12603;SDS011;6367;52.508;13.284;2023-02-15T04:35:09;57.57;;;33.17;;
12603;SDS011;6367;52.508;13.284;2023-02-15T04:37:36;55.17;;;33.43;;
12603;SDS011;6367;52.508;13.284;2023-02-15T04:40:03;56.33;;;32.10;;
12603;SDS011;6367;52.508;13.284;2023-02-15T04:42:29;53.40;;;31.50;;
12603;SDS011;6367;52.508;13.284;2023-02-15T04:44:55;57.77;;;32.60;;
12603;SDS011;6367;52.508;13.284;2023-02-15T04:47:21;59.17;;;33.60;;
12603;SDS011;6367;52.508;13.284;2023-02-15T04:49:47;62.73;;;35.00;;
12603;SDS011;6367;52.508;13.284;2023-02-15T04:52:13;58.93;;;33.27;;
12603;SDS011;6367;52.508;13.284;2023-02-15T04:54:39;54.90;;;30.90;;
12603;SDS011;6367;52.508;13.284;2023-02-15T04:57:05;52.37;;;32.13;;
12603;SDS011;6367;52.508;13.284;2023-02-15T04:59:31;56.50;;;32.70;;
12603;SDS011;6367;52.508;13.284;2023-02-15T05:01:56;60.23;;;33.60;;
12603;SDS011;6367;52.508;13.284;2023-02-15T05:04:23;60.90;;;31.00;;
12603;SDS011;6367;52.508;13.284;2023-02-15T05:06:48;59.53;;;33.80;;
12603;SDS011;6367;52.508;13.284;2023-02-15T05:09:14;59.00;;;32.77;;
12603;SDS011;6367;52.508;13.284;2023-02-15T05:11:40;56.87;;;33.40;;
12603;SDS011;6367;52.508;13.284;2023-02-15T05:14:06;56.20;;;31.63;;
12603;SDS011;6367;52.508;13.284;2023-02-15T05:16:31;57.40;;;31.80;;
12603;SDS011;6367;52.508;13.284;2023-02-15T05:18:57;55.13;;;30.30;;
12603;SDS011;6367;52.508;13.284;2023-02-15T05:21:23;53.17;;;31.60;;
12603;SDS011;6367;52.508;13.284;2023-02-15T05:23:48;60.60;;;32.57;;
12603;SDS011;6367;52.508;13.284;2023-02-15T05:26:18;58.80;;;33.40;;
12603;SDS011;6367;52.508;13.284;2023-02-15T05:29:06;54.00;;;30.60;;
12603;SDS011;6367;52.508;13.284;2023-02-15T05:31:35;55.73;;;31.90;;
12603;SDS011;6367;52.508;13.284;2023-02-15T05:34:01;54.40;;;32.47;;
12603;SDS011;6367;52.508;13.284;2023-02-15T05:36:27;60.70;;;31.70;;
12603;SDS011;6367;52.508;13.284;2023-02-15T05:38:53;60.47;;;33.37;;
12603;SDS011;6367;52.508;13.284;2023-02-15T05:41:19;57.43;;;34.03;;
12603;SDS011;6367;52.508;13.284;2023-02-15T05:43:45;55.43;;;32.77;;
12603;SDS011;6367;52.508;13.284;2023-02-15T05:46:11;52.60;;;31.37;;
12603;SDS011;6367;52.508;13.284;2023-02-15T05:48:37;57.70;;;34.10;;
12603;SDS011;6367;52.508;13.284;2023-02-15T05:53:31;52.50;;;33.23;;
12603;SDS011;6367;52.508;13.284;2023-02-15T05:55:58;60.13;;;34.00;;
12603;SDS011;6367;52.508;13.284;2023-02-15T05:58:42;60.00;;;31.10;;
12603;SDS011;6367;52.508;13.284;2023-02-15T06:01:09;56.87;;;32.03;;
12603;SDS011;6367;52.508;13.284;2023-02-15T06:03:40;58.87;;;32.47;;
12603;SDS011;6367;52.508;13.284;2023-02-15T06:06:06;55.50;;;31.67;;
12603;SDS011;6367;52.508;13.284;2023-02-15T06:08:33;54.90;;;30.73;;
12603;SDS011;6367;52.508;13.284;2023-02-15T06:10:59;56.87;;;32.03;;
12603;SDS011;6367;52.508;13.284;2023-02-15T06:13:25;63.10;;;34.23;;
12603;SDS011;6367;52.508;13.284;2023-02-15T06:15:51;72.10;;;35.90;;
12603;SDS011;6367;52.508;13.284;2023-02-15T06:18:17;65.50;;;33.00;;
12603;SDS011;6367;52.508;13.284;2023-02-15T06:20:45;62.07;;;33.83;;
12603;SDS011;6367;52.508;13.284;2023-02-15T06:23:11;58.60;;;31.90;;
12603;SDS011;6367;52.508;13.284;2023-02-15T06:25:37;61.63;;;33.97;;
12603;SDS011;6367;52.508;13.284;2023-02-15T06:28:03;62.80;;;33.03;;
12603;SDS011;6367;52.508;13.284;2023-02-15T06:30:28;67.30;;;34.77;;
12603;SDS011;6367;52.508;13.284;2023-02-15T06:32:54;69.13;;;35.43;;
12603;SDS011;6367;52.508;13.284;2023-02-15T06:35:20;69.37;;;34.27;;
12603;SDS011;6367;52.508;13.284;2023-02-15T06:37:46;79.27;;;37.20;;
12603;SDS011;6367;52.508;13.284;2023-02-15T06:40:13;66.60;;;33.90;;
12603;SDS011;6367;52.508;13.284;2023-02-15T06:42:39;68.67;;;34.57;;
12603;SDS011;6367;52.508;13.284;2023-02-15T06:45:05;73.97;;;35.77;;
12603;SDS011;6367;52.508;13.284;2023-02-15T06:47:31;70.80;;;35.73;;
12603;SDS011;6367;52.508;13.284;2023-02-15T06:49:56;70.03;;;35.10;;
12603;SDS011;6367;52.508;13.284;2023-02-15T06:52:22;75.30;;;36.00;;
12603;SDS011;6367;52.508;13.284;2023-02-15T06:54:48;80.90;;;36.37;;
12603;SDS011;6367;52.508;13.284;2023-02-15T06:57:14;74.17;;;34.30;;
12603;SDS011;6367;52.508;13.284;2023-02-15T06:59:40;71.53;;;36.43;;
12603;SDS011;6367;52.508;13.284;2023-02-15T07:02:05;86.40;;;38.07;;
12603;SDS011;6367;52.508;13.284;2023-02-15T07:04:31;77.37;;;36.30;;
12603;SDS011;6367;52.508;13.284;2023-02-15T07:06:57;74.03;;;34.60;;
12603;SDS011;6367;52.508;13.284;2023-02-15T07:09:23;66.70;;;32.87;;
12603;SDS011;6367;52.508;13.284;2023-02-15T07:11:48;62.60;;;32.40;;
12603;SDS011;6367;52.508;13.284;2023-02-15T07:14:33;70.50;;;34.40;;
12603;SDS011;6367;52.508;13.284;2023-02-15T07:16:58;74.97;;;34.07;;
12603;SDS011;6367;52.508;13.284;2023-02-15T07:19:24;72.27;;;36.10;;
12603;SDS011;6367;52.508;13.284;2023-02-15T07:21:50;81.37;;;37.30;;
12603;SDS011;6367;52.508;13.284;2023-02-15T07:24:15;68.83;;;36.30;;
12603;SDS011;6367;52.508;13.284;2023-02-15T07:26:41;71.90;;;34.23;;
12603;SDS011;6367;52.508;13.284;2023-02-15T07:29:07;70.40;;;34.50;;
12603;SDS011;6367;52.508;13.284;2023-02-15T07:31:32;69.43;;;34.70;;
12603;SDS011;6367;52.508;13.284;2023-02-15T07:33:58;62.50;;;31.87;;
12603;SDS011;6367;52.508;13.284;2023-02-15T07:36:24;69.80;;;33.80;;
12603;SDS011;6367;52.508;13.284;2023-02-15T07:38:49;67.87;;;35.70;;
12603;SDS011;6367;52.508;13.284;2023-02-15T07:41:15;67.67;;;32.23;;
12603;SDS011;6367;52.508;13.284;2023-02-15T07:43:43;69.97;;;34.23;;
12603;SDS011;6367;52.508;13.284;2023-02-15T07:46:10;70.87;;;37.27;;
12603;SDS011;6367;52.508;13.284;2023-02-15T07:48:38;67.50;;;34.50;;
12603;SDS011;6367;52.508;13.284;2023-02-15T07:51:05;66.40;;;35.30;;
12603;SDS011;6367;52.508;13.284;2023-02-15T07:53:33;61.10;;;33.70;;
12603;SDS011;6367;52.508;13.284;2023-02-15T07:56:00;62.50;;;32.93;;
12603;SDS011;6367;52.508;13.284;2023-02-15T07:58:26;62.87;;;32.50;;
12603;SDS011;6367;52.508;13.284;2023-02-15T08:01:13;62.67;;;32.33;;
12603;SDS011;6367;52.508;13.284;2023-02-15T08:03:39;55.93;;;31.57;;
12603;SDS011;6367;52.508;13.284;2023-02-15T08:06:05;59.70;;;31.00;;
12603;SDS011;6367;52.508;13.284;2023-02-15T08:08:35;59.37;;;31.37;;
12603;SDS011;6367;52.508;13.284;2023-02-15T08:11:14;54.63;;;29.03;;
12603;SDS011;6367;52.508;13.284;2023-02-15T08:16:22;64.93;;;32.00;;
12603;SDS011;6367;52.508;13.284;2023-02-15T08:18:49;53.20;;;29.50;;
12603;SDS011;6367;52.508;13.284;2023-02-15T08:21:15;59.23;;;31.77;;
12603;SDS011;6367;52.508;13.284;2023-02-15T08:23:41;59.00;;;30.30;;
12603;SDS011;6367;52.508;13.284;2023-02-15T08:26:07;66.00;;;32.00;;
12603;SDS011;6367;52.508;13.284;2023-02-15T08:28:33;63.33;;;32.27;;
12603;SDS011;6367;52.508;13.284;2023-02-15T08:31:05;58.60;;;30.90;;
12603;SDS011;6367;52.508;13.284;2023-02-15T08:33:31;55.90;;;31.93;;
12603;SDS011;6367;52.508;13.284;2023-02-15T08:36:01;53.47;;;29.90;;
12603;SDS011;6367;52.508;13.284;2023-02-15T08:38:28;51.90;;;28.90;;
12603;SDS011;6367;52.508;13.284;2023-02-15T08:40:53;50.50;;;28.93;;
12603;SDS011;6367;52.508;13.284;2023-02-15T08:43:19;46.53;;;27.23;;
12603;SDS011;6367;52.508;13.284;2023-02-15T08:45:44;41.60;;;25.40;;
12603;SDS011;6367;52.508;13.284;2023-02-15T08:48:10;42.70;;;26.13;;
12603;SDS011;6367;52.508;13.284;2023-02-15T08:50:36;43.03;;;25.70;;
12603;SDS011;6367;52.508;13.284;2023-02-15T08:53:01;40.57;;;25.50;;
12603;SDS011;6367;52.508;13.284;2023-02-15T08:55:27;47.23;;;27.53;;
12603;SDS011;6367;52.508;13.284;2023-02-15T08:57:52;42.83;;;24.90;;
12603;SDS011;6367;52.508;13.284;2023-02-15T09:00:20;49.93;;;27.60;;
12603;SDS011;6367;52.508;13.284;2023-02-15T09:02:50;45.87;;;24.70;;
12603;SDS011;6367;52.508;13.284;2023-02-15T09:05:15;44.87;;;25.93;;
12603;SDS011;6367;52.508;13.284;2023-02-15T09:07:41;40.83;;;26.03;;
12603;SDS011;6367;52.508;13.284;2023-02-15T09:10:07;46.00;;;27.23;;
12603;SDS011;6367;52.508;13.284;2023-02-15T09:12:33;46.93;;;26.70;;
12603;SDS011;6367;52.508;13.284;2023-02-15T09:14:58;43.07;;;25.57;;
12603;SDS011;6367;52.508;13.284;2023-02-15T09:17:24;41.80;;;24.70;;
12603;SDS011;6367;52.508;13.284;2023-02-15T09:19:50;40.97;;;25.27;;
12603;SDS011;6367;52.508;13.284;2023-02-15T09:22:15;42.10;;;25.63;;
12603;SDS011;6367;52.508;13.284;2023-02-15T09:24:41;42.73;;;25.47;;
12603;SDS011;6367;52.508;13.284;2023-02-15T09:27:07;40.73;;;25.23;;
12603;SDS011;6367;52.508;13.284;2023-02-15T09:29:32;41.97;;;25.30;;
12603;SDS011;6367;52.508;13.284;2023-02-15T09:31:58;38.70;;;23.57;;
12603;SDS011;6367;52.508;13.284;2023-02-15T09:34:23;43.60;;;25.60;;
12603;SDS011;6367;52.508;13.284;2023-02-15T09:36:49;41.70;;;25.03;;
12603;SDS011;6367;52.508;13.284;2023-02-15T09:39:23;43.37;;;26.17;;
12603;SDS011;6367;52.508;13.284;2023-02-15T09:53:56;37.50;;;23.43;;
12603;SDS011;6367;52.508;13.284;2023-02-15T09:59:14;41.60;;;23.40;;
12603;SDS011;6367;52.508;13.284;2023-02-15T10:01:54;45.77;;;25.07;;
12603;SDS011;6367;52.508;13.284;2023-02-15T10:04:50;41.80;;;25.30;;
12603;SDS011;6367;52.508;13.284;2023-02-15T10:13:22;44.10;;;25.97;;
12603;SDS011;6367;52.508;13.284;2023-02-15T10:16:13;38.67;;;24.77;;
12603;SDS011;6367;52.508;13.284;2023-02-15T10:18:58;38.00;;;23.33;;
12603;SDS011;6367;52.508;13.284;2023-02-15T10:24:43;38.80;;;24.87;;
12603;SDS011;6367;52.508;13.284;2023-02-15T10:27:19;39.60;;;25.23;;
12603;SDS011;6367;52.508;13.284;2023-02-15T10:32:42;39.47;;;24.30;;
12603;SDS011;6367;52.508;13.284;2023-02-15T10:35:50;37.37;;;24.87;;
12603;SDS011;6367;52.508;13.284;2023-02-15T10:46:35;40.40;;;26.20;;
12603;SDS011;6367;52.508;13.284;2023-02-15T10:49:20;37.30;;;25.30;;
12603;SDS011;6367;52.508;13.284;2023-02-15T10:54:50;35.40;;;24.93;;
12603;SDS011;6367;52.508;13.284;2023-02-15T10:57:25;38.87;;;24.97;;
12603;SDS011;6367;52.508;13.284;2023-02-15T11:03:03;38.00;;;24.00;;
12603;SDS011;6367;52.508;13.284;2023-02-15T11:11:40;32.77;;;22.57;;
12603;SDS011;6367;52.508;13.284;2023-02-15T11:14:12;34.10;;;23.50;;
12603;SDS011;6367;52.508;13.284;2023-02-15T11:16:48;32.73;;;23.27;;
12603;SDS011;6367;52.508;13.284;2023-02-15T11:19:19;29.80;;;21.70;;
12603;SDS011;6367;52.508;13.284;2023-02-15T11:21:54;36.37;;;21.67;;
12603;SDS011;6367;52.508;13.284;2023-02-15T11:24:27;32.67;;;22.97;;
12603;SDS011;6367;52.508;13.284;2023-02-15T11:30:00;31.23;;;21.50;;
12603;SDS011;6367;52.508;13.284;2023-02-15T11:32:33;30.20;;;21.70;;
12603;SDS011;6367;52.508;13.284;2023-02-15T11:35:04;31.03;;;21.17;;
12603;SDS011;6367;52.508;13.284;2023-02-15T11:40:46;31.87;;;21.20;;
12603;SDS011;6367;52.508;13.284;2023-02-15T11:43:24;29.40;;;21.00;;
12603;SDS011;6367;52.508;13.284;2023-02-15T11:46:00;30.27;;;20.67;;
12603;SDS011;6367;52.508;13.284;2023-02-15T11:48:26;27.13;;;21.53;;
12603;SDS011;6367;52.508;13.284;2023-02-15T11:50:56;27.37;;;19.83;;
12603;SDS011;6367;52.508;13.284;2023-02-15T11:53:22;29.20;;;21.27;;
12603;SDS011;6367;52.508;13.284;2023-02-15T11:55:52;29.10;;;20.53;;
12603;SDS011;6367;52.508;13.284;2023-02-15T12:01:33;29.33;;;20.50;;
12603;SDS011;6367;52.508;13.284;2023-02-15T12:04:21;26.07;;;19.70;;
12603;SDS011;6367;52.508;13.284;2023-02-15T12:07:03;26.10;;;19.00;;
12603;SDS011;6367;52.508;13.284;2023-02-15T12:09:52;27.90;;;21.50;;
12603;SDS011;6367;52.508;13.284;2023-02-15T12:13:35;26.73;;;21.03;;
12603;SDS011;6367;52.508;13.284;2023-02-15T12:15:37;29.60;;;19.50;;
12603;SDS011;6367;52.508;13.284;2023-02-15T12:18:15;28.40;;;20.23;;
12603;SDS011;6367;52.508;13.284;2023-02-15T12:20:51;31.73;;;20.37;;
12603;SDS011;6367;52.508;13.284;2023-02-15T12:23:17;25.97;;;19.50;;
12603;SDS011;6367;52.508;13.284;2023-02-15T12:25:54;25.60;;;19.00;;
12603;SDS011;6367;52.508;13.284;2023-02-15T12:28:26;25.13;;;19.40;;
12603;SDS011;6367;52.508;13.284;2023-02-15T12:30:56;24.57;;;18.97;;
12603;SDS011;6367;52.508;13.284;2023-02-15T12:36:22;25.17;;;18.97;;
12603;SDS011;6367;52.508;13.284;2023-02-15T12:41:45;24.27;;;18.47;;
12603;SDS011;6367;52.508;13.284;2023-02-15T12:44:29;31.00;;;21.90;;
12603;SDS011;6367;52.508;13.284;2023-02-15T12:49:39;26.47;;;21.60;;
12603;SDS011;6367;52.508;13.284;2023-02-15T12:52:06;30.67;;;22.03;;
12603;SDS011;6367;52.508;13.284;2023-02-15T12:54:49;25.97;;;20.57;;
12603;SDS011;6367;52.508;13.284;2023-02-15T12:59:56;25.23;;;19.67;;
12603;SDS011;6367;52.508;13.284;2023-02-15T13:05:18;28.20;;;20.83;;
12603;SDS011;6367;52.508;13.284;2023-02-15T13:08:00;30.47;;;21.57;;
12603;SDS011;6367;52.508;13.284;2023-02-15T13:10:36;25.23;;;18.77;;
12603;SDS011;6367;52.508;13.284;2023-02-15T13:13:15;26.70;;;19.37;;
12603;SDS011;6367;52.508;13.284;2023-02-15T13:15:46;26.73;;;19.03;;
12603;SDS011;6367;52.508;13.284;2023-02-15T13:18:17;26.37;;;19.20;;
12603;SDS011;6367;52.508;13.284;2023-02-15T13:20:50;24.73;;;17.90;;
12603;SDS011;6367;52.508;13.284;2023-02-15T13:23:27;25.77;;;19.00;;
12603;SDS011;6367;52.508;13.284;2023-02-15T13:25:55;24.80;;;19.00;;
12603;SDS011;6367;52.508;13.284;2023-02-15T13:28:24;28.03;;;20.43;;
12603;SDS011;6367;52.508;13.284;2023-02-15T13:30:59;25.90;;;19.80;;
12603;SDS011;6367;52.508;13.284;2023-02-15T13:44:21;22.90;;;18.10;;
12603;SDS011;6367;52.508;13.284;2023-02-15T13:52:46;19.27;;;16.03;;
12603;SDS011;6367;52.508;13.284;2023-02-15T14:01:08;21.57;;;17.30;;
12603;SDS011;6367;52.508;13.284;2023-02-15T14:06:46;21.77;;;16.33;;
12603;SDS011;6367;52.508;13.284;2023-02-15T14:15:18;19.33;;;15.33;;
12603;SDS011;6367;52.508;13.284;2023-02-15T14:23:14;16.90;;;13.90;;
12603;SDS011;6367;52.508;13.284;2023-02-15T14:26:00;25.07;;;17.90;;
12603;SDS011;6367;52.508;13.284;2023-02-15T14:31:12;20.43;;;15.93;;
12603;SDS011;6367;52.508;13.284;2023-02-15T14:33:40;21.63;;;16.13;;
12603;SDS011;6367;52.508;13.284;2023-02-15T14:36:13;21.30;;;15.10;;
12603;SDS011;6367;52.508;13.284;2023-02-15T14:42:01;18.57;;;14.07;;
12603;SDS011;6367;52.508;13.284;2023-02-15T14:44:45;19.77;;;15.60;;
12603;SDS011;6367;52.508;13.284;2023-02-15T14:55:42;16.87;;;13.40;;
12603;SDS011;6367;52.508;13.284;2023-02-15T14:58:11;19.87;;;15.77;;
12603;SDS011;6367;52.508;13.284;2023-02-15T15:00:39;20.20;;;16.13;;
12603;SDS011;6367;52.508;13.284;2023-02-15T15:03:23;20.00;;;14.53;;
12603;SDS011;6367;52.508;13.284;2023-02-15T15:05:51;19.30;;;15.13;;
12603;SDS011;6367;52.508;13.284;2023-02-15T15:08:29;20.73;;;15.90;;
12603;SDS011;6367;52.508;13.284;2023-02-15T15:18:54;16.87;;;13.00;;
12603;SDS011;6367;52.508;13.284;2023-02-15T15:24:57;16.17;;;13.47;;
12603;SDS011;6367;52.508;13.284;2023-02-15T15:47:29;18.23;;;12.57;;
12603;SDS011;6367;52.508;13.284;2023-02-15T15:49:59;22.77;;;14.77;;
12603;SDS011;6367;52.508;13.284;2023-02-15T15:52:25;17.70;;;13.00;;
12603;SDS011;6367;52.508;13.284;2023-02-15T15:54:56;18.73;;;13.00;;
12603;SDS011;6367;52.508;13.284;2023-02-15T15:57:33;14.93;;;12.20;;
12603;SDS011;6367;52.508;13.284;2023-02-15T16:00:04;11.80;;;9.90;;
12603;SDS011;6367;52.508;13.284;2023-02-15T16:02:51;12.00;;;9.93;;
12603;SDS011;6367;52.508;13.284;2023-02-15T16:05:17;11.73;;;10.53;;
12603;SDS011;6367;52.508;13.284;2023-02-15T16:07:43;12.40;;;9.30;;
12603;SDS011;6367;52.508;13.284;2023-02-15T16:13:05;11.67;;;9.27;;
12603;SDS011;6367;52.508;13.284;2023-02-15T16:15:44;13.67;;;9.23;;
12603;SDS011;6367;52.508;13.284;2023-02-15T16:18:15;10.17;;;8.97;;
12603;SDS011;6367;52.508;13.284;2023-02-15T16:20:48;12.50;;;9.90;;
12603;SDS011;6367;52.508;13.284;2023-02-15T16:26:15;13.53;;;9.60;;
12603;SDS011;6367;52.508;13.284;2023-02-15T16:29:14;9.90;;;8.80;;
12603;SDS011;6367;52.508;13.284;2023-02-15T16:31:40;9.53;;;8.47;;
12603;SDS011;6367;52.508;13.284;2023-02-15T16:34:09;9.30;;;8.40;;
12603;SDS011;6367;52.508;13.284;2023-02-15T16:36:42;11.50;;;8.63;;
12603;SDS011;6367;52.508;13.284;2023-02-15T16:39:09;10.53;;;8.13;;
12603;SDS011;6367;52.508;13.284;2023-02-15T16:41:43;9.40;;;8.37;;
12603;SDS011;6367;52.508;13.284;2023-02-15T16:44:16;10.30;;;9.17;;
12603;SDS011;6367;52.508;13.284;2023-02-15T16:46:45;13.10;;;10.83;;
12603;SDS011;6367;52.508;13.284;2023-02-15T16:51:54;13.17;;;9.90;;
12603;SDS011;6367;52.508;13.284;2023-02-15T16:54:28;10.73;;;8.73;;
12603;SDS011;6367;52.508;13.284;2023-02-15T16:56:56;11.77;;;9.97;;
12603;SDS011;6367;52.508;13.284;2023-02-15T17:02:11;12.20;;;10.00;;
12603;SDS011;6367;52.508;13.284;2023-02-15T17:04:43;10.20;;;8.77;;
12603;SDS011;6367;52.508;13.284;2023-02-15T17:07:17;10.50;;;8.40;;
12603;SDS011;6367;52.508;13.284;2023-02-15T17:17:58;12.00;;;10.77;;
12603;SDS011;6367;52.508;13.284;2023-02-15T17:20:30;11.50;;;9.70;;
12603;SDS011;6367;52.508;13.284;2023-02-15T17:22:56;12.37;;;9.93;;
12603;SDS011;6367;52.508;13.284;2023-02-15T17:25:28;15.07;;;10.60;;
12603;SDS011;6367;52.508;13.284;2023-02-15T17:28:04;14.40;;;11.23;;
12603;SDS011;6367;52.508;13.284;2023-02-15T17:30:40;15.50;;;11.70;;
12603;SDS011;6367;52.508;13.284;2023-02-15T17:33:17;15.07;;;11.23;;
12603;SDS011;6367;52.508;13.284;2023-02-15T17:36:01;13.07;;;10.27;;
12603;SDS011;6367;52.508;13.284;2023-02-15T17:38:37;15.73;;;10.20;;
12603;SDS011;6367;52.508;13.284;2023-02-15T17:41:04;14.70;;;10.77;;
12603;SDS011;6367;52.508;13.284;2023-02-15T17:43:30;14.47;;;12.03;;
12603;SDS011;6367;52.508;13.284;2023-02-15T17:45:56;12.53;;;10.87;;
12603;SDS011;6367;52.508;13.284;2023-02-15T17:48:36;12.10;;;9.97;;
12603;SDS011;6367;52.508;13.284;2023-02-15T17:51:04;12.20;;;10.33;;
12603;SDS011;6367;52.508;13.284;2023-02-15T17:53:36;14.70;;;11.93;;
12603;SDS011;6367;52.508;13.284;2023-02-15T17:56:02;14.57;;;11.57;;
12603;SDS011;6367;52.508;13.284;2023-02-15T17:58:35;18.03;;;11.93;;
12603;SDS011;6367;52.508;13.284;2023-02-15T18:01:03;15.90;;;12.87;;
12603;SDS011;6367;52.508;13.284;2023-02-15T18:03:56;15.20;;;13.03;;
12603;SDS011;6367;52.508;13.284;2023-02-15T18:06:41;18.97;;;13.40;;
12603;SDS011;6367;52.508;13.284;2023-02-15T18:09:26;17.60;;;13.87;;
12603;SDS011;6367;52.508;13.284;2023-02-15T18:12:14;20.40;;;15.70;;
12603;SDS011;6367;52.508;13.284;2023-02-15T18:14:52;21.77;;;16.50;;
12603;SDS011;6367;52.508;13.284;2023-02-15T18:17:20;20.00;;;15.80;;
12603;SDS011;6367;52.508;13.284;2023-02-15T18:19:50;24.80;;;17.27;;
12603;SDS011;6367;52.508;13.284;2023-02-15T18:22:16;26.57;;;18.60;;